createdAt,value
2018-09-05T00:01:00.264Z,19.90
2018-09-05T00:03:30.768Z,19.90
2018-09-05T00:06:01.064Z,19.90
2018-09-05T00:08:31.377Z,19.80
2018-09-05T00:11:02.177Z,19.90
2018-09-05T00:13:33.168Z,19.80
2018-09-05T00:16:04.982Z,19.80
2018-09-05T00:18:35.482Z,19.70
2018-09-05T00:21:06.114Z,19.70
2018-09-05T00:23:36.620Z,19.70
2018-09-05T00:26:07.504Z,19.60
2018-09-05T00:28:38.012Z,19.60
2018-09-05T00:31:10.800Z,19.60
2018-09-05T00:33:41.808Z,19.60
2018-09-05T00:36:12.461Z,19.60
2018-09-05T00:38:43.301Z,19.50
2018-09-05T00:41:14.284Z,19.40
2018-09-05T00:43:44.820Z,19.50
2018-09-05T00:46:16.253Z,19.50
2018-09-05T00:48:46.756Z,19.50
2018-09-05T00:51:17.264Z,19.40
2018-09-05T00:53:47.836Z,19.50
2018-09-05T00:56:18.661Z,19.40
2018-09-05T00:58:48.941Z,19.40
2018-09-05T01:01:19.476Z,19.40
2018-09-05T01:03:50.021Z,19.40
2018-09-05T01:06:20.573Z,19.50
2018-09-05T01:08:51.122Z,19.40
2018-09-05T01:11:21.421Z,19.40
2018-09-05T01:13:51.708Z,19.40
2018-09-05T01:16:22.712Z,19.40
2018-09-05T01:18:53.004Z,19.40
2018-09-05T01:21:23.627Z,19.40
2018-09-05T01:23:54.364Z,19.40
2018-09-05T01:26:25.836Z,19.40
2018-09-05T01:28:56.356Z,19.40
2018-09-05T01:31:27.325Z,19.30
2018-09-05T01:33:58.057Z,19.30
2018-09-05T01:36:29.514Z,19.30
2018-09-05T01:38:59.809Z,19.30
2018-09-05T01:41:32.360Z,19.30
2018-09-05T01:44:03.493Z,19.30
2018-09-05T01:46:34.460Z,19.30
2018-09-05T01:49:05.409Z,19.40
2018-09-05T01:51:36.299Z,19.40
2018-09-05T01:54:07.280Z,19.40
2018-09-05T01:56:38.076Z,19.40
2018-09-05T01:59:08.636Z,19.40
2018-09-05T02:01:39.521Z,19.40
2018-09-05T02:04:09.801Z,19.40
2018-09-05T02:06:40.992Z,19.40
2018-09-05T02:09:13.081Z,19.30
2018-09-05T02:11:44.512Z,19.40
2018-09-05T02:14:15.328Z,19.30
2018-09-05T02:16:45.986Z,19.30
2018-09-05T02:19:16.515Z,19.40
2018-09-05T02:21:47.456Z,19.40
2018-09-05T02:24:18.010Z,19.30
2018-09-05T02:26:48.619Z,19.30
2018-09-05T02:29:18.936Z,19.20
2018-09-05T02:31:49.389Z,19.20
2018-09-05T02:34:19.913Z,19.20
2018-09-05T02:36:50.737Z,19.20
2018-09-05T02:39:21.281Z,19.20
2018-09-05T02:41:52.618Z,19.30
2018-09-05T02:44:23.902Z,19.20
2018-09-05T02:46:54.708Z,19.20
2018-09-05T02:49:25.243Z,19.20
2018-09-05T02:51:56.075Z,19.20
2018-09-05T02:54:26.840Z,19.10
2018-09-05T02:56:57.634Z,19.10
2018-09-05T02:59:28.176Z,19.10
2018-09-05T03:01:59.015Z,19.20
2018-09-05T03:04:29.546Z,19.30
2018-09-05T03:07:00.346Z,19.30
2018-09-05T03:09:30.961Z,19.20
2018-09-05T03:12:01.407Z,19.20
2018-09-05T03:14:32.209Z,19.20
2018-09-05T03:17:03.025Z,19.20
2018-09-05T03:19:33.538Z,19.10
2018-09-05T03:22:04.373Z,19.10
2018-09-05T03:24:34.689Z,19.10
2018-09-05T03:27:05.689Z,19.10
2018-09-05T03:29:36.230Z,19.10
2018-09-05T03:32:06.858Z,19.10
2018-09-05T03:34:37.662Z,19.10
2018-09-05T03:37:08.482Z,19.10
2018-09-05T03:39:38.797Z,19.10
2018-09-05T03:42:09.125Z,19.10
2018-09-05T03:44:40.002Z,19.00
2018-09-05T03:47:10.907Z,18.90
2018-09-05T03:49:41.732Z,18.90
2018-09-05T03:52:12.579Z,18.90
2018-09-05T03:54:42.925Z,18.90
2018-09-05T03:57:13.461Z,18.90
2018-09-05T03:59:43.798Z,18.90
2018-09-05T04:02:14.594Z,18.90
2018-09-05T04:04:44.908Z,19.00
2018-09-05T04:07:15.533Z,19.00
2018-09-05T04:09:46.186Z,19.00
2018-09-05T04:12:16.894Z,18.90
2018-09-05T04:14:48.121Z,18.90
2018-09-05T04:17:18.737Z,18.90
2018-09-05T04:19:49.330Z,19.00
2018-09-05T04:22:19.691Z,19.00
2018-09-05T04:24:50.018Z,19.10
2018-09-05T04:27:20.613Z,19.10
2018-09-05T04:29:51.459Z,19.10
2018-09-05T04:32:22.210Z,19.20
2018-09-05T04:34:53.018Z,19.20
2018-09-05T04:37:23.771Z,19.20
2018-09-05T04:39:54.313Z,19.20
2018-09-05T04:42:25.345Z,19.20
2018-09-05T04:44:56.077Z,19.20
2018-09-05T04:47:26.930Z,19.20
2018-09-05T04:49:57.442Z,19.20
2018-09-05T04:52:28.349Z,19.20
2018-09-05T04:54:59.093Z,19.20
2018-09-05T04:57:29.962Z,19.20
2018-09-05T05:00:00.522Z,19.10
2018-09-05T05:02:31.122Z,19.20
2018-09-05T05:05:01.654Z,19.20
2018-09-05T05:07:32.203Z,19.20
2018-09-05T05:10:02.757Z,19.20
2018-09-05T05:12:33.636Z,19.20
2018-09-05T05:15:04.340Z,19.20
2018-09-05T05:17:34.914Z,19.20
2018-09-05T05:20:05.542Z,19.10
2018-09-05T05:22:36.126Z,19.10
2018-09-05T05:25:06.897Z,19.10
2018-09-05T05:27:37.222Z,19.10
2018-09-05T05:30:07.858Z,19.20
2018-09-05T05:32:38.272Z,19.20
2018-09-05T05:35:09.142Z,19.00
2018-09-05T05:37:40.041Z,19.00
2018-09-05T05:40:11.502Z,19.00
2018-09-05T05:42:42.462Z,19.00
2018-09-05T05:45:13.235Z,19.00
2018-09-05T05:47:44.538Z,19.00
2018-09-05T05:50:15.414Z,18.90
2018-09-05T05:52:46.526Z,18.90
2018-09-05T05:55:17.345Z,19.00
2018-09-05T05:57:48.888Z,19.00
2018-09-05T06:00:22.898Z,19.10
2018-09-05T06:02:54.159Z,19.00
2018-09-05T06:05:24.991Z,19.00
2018-09-05T06:07:56.361Z,18.90
2018-09-05T06:10:27.738Z,18.80
2018-09-05T06:12:59.290Z,18.70
2018-09-05T06:15:29.854Z,18.70
2018-09-05T06:18:01.237Z,18.70
2018-09-05T06:20:32.207Z,18.80
2018-09-05T06:23:02.807Z,18.80
2018-09-05T06:25:33.347Z,18.80
2018-09-05T06:28:03.897Z,18.80
2018-09-05T06:30:34.702Z,18.80
2018-09-05T06:33:05.878Z,18.80
2018-09-05T06:35:36.257Z,18.80
2018-09-05T06:38:08.139Z,18.80
2018-09-05T06:40:38.654Z,18.80
2018-09-05T06:43:09.072Z,18.90
2018-09-05T06:45:39.624Z,18.90
2018-09-05T06:48:10.205Z,18.90
2018-09-05T06:50:40.769Z,18.90
2018-09-05T06:53:11.322Z,18.80
2018-09-05T06:55:42.202Z,18.80
2018-09-05T06:58:12.791Z,18.80
2018-09-05T07:00:44.000Z,18.80
2018-09-05T07:03:15.601Z,18.80
2018-09-05T07:05:46.138Z,18.80
2018-09-05T07:08:16.985Z,18.80
2018-09-05T07:10:47.554Z,18.70
2018-09-05T07:13:18.127Z,18.70
2018-09-05T07:15:48.465Z,18.70
2018-09-05T07:18:19.159Z,18.70
2018-09-05T07:20:49.722Z,18.70
2018-09-05T07:23:20.808Z,18.70
2018-09-05T07:25:51.546Z,18.70
2018-09-05T07:28:22.358Z,18.70
2018-09-05T07:30:52.970Z,18.70
2018-09-05T07:33:23.798Z,18.60
2018-09-05T07:35:54.361Z,18.50
2018-09-05T07:38:25.135Z,18.50
2018-09-05T07:40:55.675Z,18.40
2018-09-05T07:43:26.047Z,18.40
2018-09-05T07:45:56.778Z,18.40
2018-09-05T07:48:27.640Z,18.40
2018-09-05T07:50:58.213Z,18.20
2018-09-05T07:53:29.035Z,18.20
2018-09-05T07:55:59.698Z,18.10
2018-09-05T07:58:30.026Z,18.20
2018-09-05T08:01:00.592Z,18.10
2018-09-05T08:03:31.613Z,18.00
2018-09-05T08:06:02.131Z,17.90
2018-09-05T08:08:32.462Z,17.90
2018-09-05T08:11:03.037Z,17.90
2018-09-05T08:13:33.633Z,18.00
2018-09-05T08:16:04.201Z,18.00
2018-09-05T08:18:34.857Z,17.90
2018-09-05T08:21:05.474Z,17.80
2018-09-05T08:23:36.416Z,17.80
2018-09-05T08:26:07.029Z,17.80
2018-09-05T08:28:37.634Z,17.80
2018-09-05T08:31:08.198Z,17.70
2018-09-05T08:33:38.782Z,17.80
2018-09-05T08:36:09.793Z,17.70
2018-09-05T08:38:40.112Z,17.70
2018-09-05T08:41:11.744Z,17.70
2018-09-05T14:02:51.960Z,23.80
2018-09-05T14:05:23.005Z,23.80
2018-09-05T14:07:54.020Z,23.90
2018-09-05T14:10:24.715Z,23.40
2018-09-05T14:12:55.261Z,23.50
2018-09-05T14:15:25.974Z,23.40
2018-09-05T14:17:56.792Z,23.30
2018-09-05T14:20:27.559Z,23.70
2018-09-05T14:22:58.655Z,23.60
2018-09-05T14:25:28.927Z,23.30
2018-09-05T14:27:59.490Z,23.20
2018-09-05T14:30:30.050Z,23.30
2018-09-05T14:33:00.694Z,23.10
2018-09-05T14:35:31.300Z,23.10
2018-09-05T14:38:02.638Z,23.20
2018-09-05T14:42:34.439Z,22.70
2018-09-05T14:45:05.027Z,22.10
2018-09-05T14:47:35.520Z,21.80
2018-09-05T14:50:06.572Z,21.70
2018-09-05T14:52:37.159Z,21.50
2018-09-05T14:55:07.748Z,21.40
2018-09-05T14:57:39.150Z,21.30
2018-09-05T15:00:09.716Z,21.20
2018-09-05T15:02:40.526Z,21.20
2018-09-05T15:05:11.179Z,21.10
2018-09-05T15:07:45.896Z,21.10
2018-09-05T15:10:16.123Z,21.10
2018-09-05T15:12:46.975Z,21.00
2018-09-05T15:15:17.562Z,21.00
2018-09-05T15:17:48.466Z,20.90
2018-09-05T15:20:19.193Z,20.90
2018-09-05T15:22:49.840Z,20.90
2018-09-05T15:25:20.415Z,20.90
2018-09-05T15:27:50.987Z,20.80
2018-09-05T15:30:22.235Z,20.90
2018-09-05T15:32:52.927Z,20.90
2018-09-05T15:35:23.746Z,20.80
2018-09-05T15:37:54.711Z,20.80
2018-09-05T15:40:25.289Z,20.80
2018-09-05T15:42:55.978Z,20.70
2018-09-05T15:45:27.571Z,20.60
2018-09-05T15:47:58.599Z,20.70
2018-09-05T15:50:29.288Z,20.60
2018-09-05T15:52:59.832Z,20.60
2018-09-05T15:55:30.430Z,20.60
2018-09-05T15:58:01.028Z,20.60
2018-09-05T16:00:31.924Z,20.50
2018-09-05T16:03:02.503Z,20.50
2018-09-05T16:05:33.295Z,20.60
2018-09-05T16:08:04.139Z,20.60
2018-09-05T16:10:34.710Z,20.60
2018-09-05T16:13:05.279Z,20.50
2018-09-05T16:15:36.189Z,20.40
2018-09-05T16:18:06.646Z,20.30
2018-09-05T16:20:37.223Z,20.30
2018-09-05T16:23:07.862Z,20.20
2018-09-05T16:25:38.442Z,20.20
2018-09-05T16:28:08.786Z,20.20
2018-09-05T16:30:39.350Z,20.40
2018-09-05T16:33:09.942Z,20.30
2018-09-05T16:35:40.812Z,20.50
2018-09-05T16:38:11.561Z,20.30
2018-09-05T16:40:41.923Z,20.20
2018-09-05T16:43:12.302Z,20.20
2018-09-05T16:45:42.883Z,20.10
2018-09-05T16:48:13.771Z,20.10
2018-09-05T16:50:47.567Z,20.10
2018-09-05T16:53:21.931Z,20.00
2018-09-05T16:55:53.032Z,19.90
2018-09-05T16:58:23.607Z,19.90
2018-09-05T17:00:54.263Z,19.80
2018-09-05T17:03:25.018Z,19.80
2018-09-05T17:05:55.618Z,19.70
2018-09-05T17:08:26.639Z,19.70
2018-09-05T17:10:57.241Z,19.60
2018-09-05T17:13:27.767Z,19.60
2018-09-05T17:15:58.336Z,19.50
2018-09-05T17:18:29.139Z,19.50
2018-09-05T17:20:59.931Z,19.40
2018-09-05T17:23:30.724Z,19.40
2018-09-05T17:26:01.576Z,19.40
2018-09-05T17:28:32.371Z,19.40
2018-09-05T17:31:03.458Z,19.40
2018-09-05T17:33:34.087Z,19.40
2018-09-05T17:36:04.723Z,19.40
2018-09-05T17:38:35.396Z,19.40
2018-09-05T17:41:06.084Z,19.40
2018-09-05T17:43:37.486Z,19.40
2018-09-05T17:46:07.919Z,19.20
2018-09-05T17:48:38.494Z,19.10
2018-09-05T17:51:08.902Z,19.00
2018-09-05T17:53:39.588Z,19.00
2018-09-05T17:56:38.045Z,19.00
2018-09-05T17:59:09.170Z,19.00
2018-09-05T18:01:39.867Z,18.90
2018-09-05T18:04:10.363Z,18.90
2018-09-05T18:06:40.906Z,18.80
2018-09-05T18:09:12.313Z,18.70
2018-09-05T18:11:42.890Z,18.70
2018-09-05T18:14:13.814Z,18.70
2018-09-05T18:16:44.735Z,18.60
2018-09-05T18:19:15.348Z,18.50
2018-09-05T18:21:45.627Z,18.50
2018-09-05T18:24:16.194Z,19.70
2018-09-05T18:26:46.721Z,19.90
2018-09-05T18:29:16.982Z,19.90
2018-09-05T18:31:47.518Z,19.90
2018-09-05T18:34:18.090Z,20.10
2018-09-05T18:36:48.723Z,20.30
2018-09-05T18:39:19.932Z,20.40
2018-09-05T18:41:50.517Z,20.50
2018-09-05T18:44:21.538Z,20.60
2018-09-05T18:46:51.902Z,20.60
2018-09-05T18:49:22.559Z,20.60
2018-09-05T18:51:53.738Z,20.60
2018-09-05T18:54:24.316Z,20.60
2018-09-05T18:56:54.867Z,20.60
2018-09-05T18:59:25.435Z,20.60
2018-09-05T19:01:55.991Z,20.60
2018-09-05T19:04:26.546Z,20.50
2018-09-05T19:06:58.018Z,20.50
2018-09-05T19:09:28.557Z,20.50
2018-09-05T19:11:59.538Z,20.40
2018-09-05T19:14:30.350Z,20.40
2018-09-05T19:17:01.195Z,20.30
2018-09-05T19:19:31.746Z,20.20
2018-09-05T19:22:02.082Z,20.20
2018-09-05T19:24:32.626Z,20.10
2018-09-05T19:27:03.180Z,20.10
2018-09-05T19:29:33.790Z,20.00
2018-09-05T19:32:04.123Z,19.90
2018-09-05T19:34:35.598Z,19.90
2018-09-05T19:37:06.146Z,19.90
2018-09-05T19:39:36.747Z,19.80
2018-09-05T19:42:07.490Z,19.80
2018-09-05T19:44:38.059Z,19.80
2018-09-05T19:47:08.624Z,19.80
2018-09-05T19:49:39.726Z,19.80
2018-09-05T19:52:10.396Z,19.70
2018-09-05T19:54:41.124Z,19.70
2018-09-05T19:57:11.934Z,19.70
2018-09-05T19:59:42.762Z,19.60
2018-09-05T20:02:13.682Z,19.60
2018-09-05T20:04:44.263Z,19.60
2018-09-05T20:07:14.821Z,19.50
2018-09-05T20:09:45.392Z,19.50
2018-09-05T20:12:16.230Z,19.50
2018-09-05T20:14:46.815Z,19.40
2018-09-05T20:17:18.312Z,19.40
2018-09-05T20:19:48.906Z,19.40
2018-09-05T20:22:19.891Z,19.30
2018-09-05T20:24:50.770Z,19.30
2018-09-05T20:27:21.167Z,19.30
2018-09-05T20:29:51.515Z,19.30
2018-09-05T20:32:22.098Z,19.30
2018-09-05T20:34:52.769Z,19.20
2018-09-05T20:37:23.514Z,19.20
2018-09-05T20:39:53.884Z,19.20
2018-09-05T20:42:24.430Z,19.20
2018-09-05T20:44:55.039Z,19.30
2018-09-05T20:47:25.598Z,19.30
2018-09-05T20:49:56.181Z,19.30
2018-09-05T20:52:26.939Z,19.30
2018-09-05T20:54:57.850Z,19.30
2018-09-05T20:57:28.482Z,19.30
2018-09-05T20:59:59.194Z,19.30
2018-09-05T21:02:29.775Z,19.30
2018-09-05T21:05:00.162Z,19.20
2018-09-05T21:07:30.626Z,19.20
2018-09-05T21:10:00.950Z,19.10
2018-09-05T21:12:31.495Z,19.10
2018-09-05T21:15:01.826Z,19.10
2018-09-05T21:17:32.542Z,19.10
2018-09-05T21:20:03.471Z,19.10
2018-09-05T21:22:34.042Z,19.10
2018-09-05T21:25:05.056Z,19.10
2018-09-05T21:27:35.931Z,19.00
2018-09-05T21:30:06.866Z,19.00
2018-09-05T21:32:37.199Z,18.90
2018-09-05T21:35:07.917Z,18.90
2018-09-05T21:37:38.438Z,18.90
2018-09-05T21:40:09.289Z,18.90
2018-09-05T21:42:39.977Z,18.90
2018-09-05T21:45:11.194Z,18.90
2018-09-05T21:47:41.734Z,18.90
2018-09-05T21:50:12.525Z,18.90
2018-09-05T21:52:43.073Z,18.90
2018-09-05T21:55:14.161Z,18.90
2018-09-05T21:57:44.482Z,18.90
2018-09-05T22:00:15.307Z,19.00
2018-09-05T22:02:46.102Z,19.00
2018-09-05T22:05:16.930Z,19.00
2018-09-05T22:07:47.721Z,19.10
2018-09-05T22:10:18.646Z,19.10
2018-09-05T22:12:48.970Z,19.10
2018-09-05T22:15:19.610Z,19.10
2018-09-05T22:17:49.930Z,19.10
2018-09-05T22:20:20.494Z,19.20
2018-09-05T22:22:50.826Z,19.20
2018-09-05T22:25:21.629Z,19.20
2018-09-05T22:27:52.198Z,19.20
2018-09-05T22:30:22.740Z,19.20
2018-09-05T22:32:54.462Z,19.20
2018-09-05T22:35:25.335Z,19.20
2018-09-05T22:37:56.006Z,19.30
2018-09-05T22:40:29.441Z,19.30
2018-09-05T22:43:17.313Z,19.30
2018-09-05T22:46:05.122Z,19.30
2018-09-05T22:48:55.754Z,19.30
2018-09-05T22:52:23.381Z,19.20
2018-09-05T22:55:14.858Z,19.20
2018-09-05T22:58:25.811Z,19.20
2018-09-05T23:02:12.895Z,19.20
2018-09-05T23:05:09.083Z,19.10
2018-09-05T23:07:55.387Z,19.10
2018-09-05T23:10:43.338Z,19.10
2018-09-05T23:13:31.280Z,19.10
2018-09-05T23:16:19.010Z,19.10
2018-09-05T23:21:14.578Z,19.10
2018-09-05T23:24:00.255Z,19.00
2018-09-05T23:26:31.030Z,19.00
2018-09-05T23:29:02.251Z,19.00
2018-09-05T23:31:32.866Z,19.00
2018-09-05T23:34:03.670Z,18.90
2018-09-05T23:36:34.248Z,18.90
2018-09-05T23:39:06.984Z,18.90
2018-09-05T23:41:37.529Z,18.90
2018-09-05T23:44:07.857Z,18.90
2018-09-05T23:46:38.194Z,18.90
2018-09-05T23:49:08.798Z,18.90
2018-09-05T23:51:39.377Z,18.80
2018-09-05T23:54:10.180Z,18.70
2018-09-05T23:56:40.958Z,18.70
2018-09-05T23:59:11.845Z,18.70
